Time;durP1;ratioP1;P1;durP2;ratioP2;P2;SDS_P1;SDS_P2;PMS_P1;PMS_P2;Temp;Humidity;BMP_temperature;BMP_pressure;BME280_temperature;BME280_humidity;BME280_pressure;Samples;Min_cycle;Max_cycle;Signal;HPM_P1;HPM_P2
2023/04/03 00:00:52;;;;;;;9.60;3.35;;;13.70;85.90;;;;;;5047125;28;20033;-58
2023/04/03 00:03:18;;;;;;;14.18;4.20;;;13.70;85.90;;;;;;5046558;28;20027;-59
2023/04/03 00:05:44;;;;;;;9.60;3.28;;;13.60;86.50;;;;;;5046745;28;20134;-59
2023/04/03 00:08:09;;;;;;;6.38;3.30;;;13.60;86.00;;;;;;5046599;28;20468;-58
2023/04/03 00:10:36;;;;;;;9.82;3.33;;;13.60;86.00;;;;;;5046599;28;20039;-59
2023/04/03 00:13:02;;;;;;;7.78;2.85;;;13.60;86.10;;;;;;5046609;28;20034;-59
2023/04/03 00:15:28;;;;;;;6.78;2.92;;;13.60;86.00;;;;;;5046187;28;20029;-58
2023/04/03 00:17:54;;;;;;;8.85;3.13;;;13.60;86.10;;;;;;5047655;28;20030;-59
2023/04/03 00:20:19;;;;;;;16.10;3.20;;;13.50;86.10;;;;;;5046725;28;20021;-59
2023/04/03 00:22:45;;;;;;;7.63;3.10;;;13.50;86.10;;;;;;5046507;28;20032;-59
2023/04/03 00:25:13;;;;;;;8.20;3.13;;;13.50;86.80;;;;;;5046553;28;20060;-59
2023/04/03 00:27:39;;;;;;;10.90;3.15;;;13.50;86.80;;;;;;5046161;28;20068;-59
2023/04/03 00:30:05;;;;;;;7.55;2.92;;;13.50;86.10;;;;;;5029510;28;20022;-58
2023/04/03 00:32:31;;;;;;;10.32;3.00;;;13.50;86.20;;;;;;5047495;28;20037;-59
2023/04/03 00:34:56;;;;;;;7.43;3.08;;;13.40;86.10;;;;;;5047450;28;20026;-59
2023/04/03 00:37:22;;;;;;;7.47;3.13;;;13.40;86.80;;;;;;5045995;28;20041;-58
2023/04/03 00:39:47;;;;;;;7.00;2.58;;;13.40;86.20;;;;;;5047515;28;20039;-59
2023/04/03 00:42:13;;;;;;;6.88;2.65;;;13.40;86.80;;;;;;5044638;28;20096;-58
2023/04/03 00:44:39;;;;;;;10.40;2.42;;;13.30;86.10;;;;;;5029290;28;20038;-58
2023/04/03 00:47:05;;;;;;;6.32;2.70;;;13.30;86.10;;;;;;5046985;28;20029;-58
2023/04/03 00:49:31;;;;;;;6.00;2.50;;;13.30;86.10;;;;;;5031145;28;20036;-59
2023/04/03 00:51:56;;;;;;;6.47;2.40;;;13.30;86.80;;;;;;5046560;28;20033;-58
2023/04/03 00:54:22;;;;;;;4.68;2.70;;;13.20;86.10;;;;;;5045789;28;20014;-59
2023/04/03 00:56:48;;;;;;;5.53;2.53;;;13.30;86.20;;;;;;5046133;28;20094;-59
2023/04/03 00:59:16;;;;;;;14.60;3.13;;;13.30;86.10;;;;;;5045929;28;20025;-59
2023/04/03 01:01:42;;;;;;;4.75;2.30;;;13.30;86.10;;;;;;5045603;28;20188;-58
2023/04/03 01:04:36;;;;;;;6.95;2.20;;;13.30;86.00;;;;;;5045767;28;20125;-58
2023/04/03 01:07:06;;;;;;;10.13;2.80;;;13.30;85.90;;;;;;5045487;28;20526;-58
2023/04/03 01:09:32;;;;;;;4.00;2.03;;;13.20;85.80;;;;;;5028945;28;20032;-58
2023/04/03 01:12:16;;;;;;;6.57;2.35;;;13.30;85.90;;;;;;5045460;28;20049;-59
2023/04/03 01:14:41;;;;;;;7.70;2.67;;;13.20;85.80;;;;;;5029093;28;20429;-58
2023/04/03 01:17:36;;;;;;;4.32;2.10;;;13.20;85.90;;;;;;5046863;28;20033;-58
2023/04/03 01:20:34;;;;;;;6.25;2.67;;;13.20;85.90;;;;;;5046683;28;20112;-58
2023/04/03 01:23:09;;;;;;;7.32;2.95;;;13.10;85.90;;;;;;5046567;28;20108;-58
2023/04/03 01:25:42;;;;;;;5.47;2.30;;;13.10;85.90;;;;;;5046599;28;20045;-59
2023/04/03 01:28:09;;;;;;;5.18;2.40;;;13.10;85.90;;;;;;5028363;28;20025;-59
2023/04/03 01:30:40;;;;;;;4.53;2.20;;;13.10;85.90;;;;;;5045052;28;20026;-59
2023/04/03 01:33:05;;;;;;;4.80;2.60;;;13.00;85.80;;;;;;5044935;28;20041;-58
2023/04/03 01:35:31;;;;;;;5.38;2.22;;;13.00;85.80;;;;;;5047343;28;20041;-58
2023/04/03 01:37:57;;;;;;;8.35;2.60;;;13.00;86.40;;;;;;5044788;28;20036;-58
2023/04/03 01:40:22;;;;;;;4.18;2.20;;;12.90;85.80;;;;;;5046076;28;20037;-58
2023/04/03 01:42:48;;;;;;;5.72;2.33;;;12.90;85.80;;;;;;5046737;28;20044;-58
2023/04/03 01:45:13;;;;;;;6.80;2.30;;;12.90;85.80;;;;;;5046361;28;20021;-58
2023/04/03 01:47:39;;;;;;;5.13;2.50;;;12.90;85.80;;;;;;5044924;28;20026;-58
2023/04/03 01:50:05;;;;;;;7.72;2.70;;;12.90;85.90;;;;;;5046105;28;20025;-58
2023/04/03 01:52:30;;;;;;;6.93;2.28;;;12.80;85.80;;;;;;5044431;28;20084;-59
2023/04/03 01:54:56;;;;;;;5.20;2.17;;;12.90;85.80;;;;;;5045451;28;20166;-58
2023/04/03 01:57:21;;;;;;;5.72;2.30;;;12.80;85.80;;;;;;5045710;28;20047;-59
2023/04/03 01:59:47;;;;;;;6.03;2.15;;;12.80;85.70;;;;;;5045681;28;20026;-58
2023/04/03 02:02:14;;;;;;;4.95;2.30;;;12.80;85.70;;;;;;5044526;28;20124;-58
2023/04/03 02:04:40;;;;;;;3.78;2.28;;;12.80;85.70;;;;;;5046253;28;20017;-58
2023/04/03 02:07:05;;;;;;;5.60;2.67;;;12.80;85.70;;;;;;5044180;28;20043;-58
2023/04/03 02:09:31;;;;;;;4.55;2.38;;;12.70;86.20;;;;;;5044301;28;20450;-58
2023/04/03 02:11:57;;;;;;;5.95;2.60;;;12.70;85.60;;;;;;5045577;28;20060;-58
2023/04/03 02:14:23;;;;;;;3.13;2.30;;;12.70;86.30;;;;;;5045730;28;20025;-58
2023/04/03 02:16:49;;;;;;;5.32;2.63;;;12.70;85.60;;;;;;5044112;28;20037;-58
2023/04/03 02:19:15;;;;;;;4.43;1.98;;;12.70;85.60;;;;;;5045543;28;20064;-59
2023/04/03 02:21:40;;;;;;;4.50;2.03;;;12.70;85.60;;;;;;5044424;28;20050;-59
2023/04/03 02:24:06;;;;;;;3.05;2.00;;;12.60;85.50;;;;;;5044332;28;20026;-58
2023/04/03 02:26:31;;;;;;;3.70;2.22;;;12.60;85.50;;;;;;5045273;28;20052;-58
2023/04/03 02:28:57;;;;;;;3.35;2.00;;;12.60;85.50;;;;;;5043737;28;20438;-58
2023/04/03 02:31:23;;;;;;;4.75;2.08;;;12.60;85.50;;;;;;5045349;28;20037;-58
2023/04/03 02:33:49;;;;;;;6.05;2.47;;;12.60;85.50;;;;;;5044000;28;20036;-58
2023/04/03 02:36:15;;;;;;;2.80;1.73;;;12.60;85.50;;;;;;5045242;28;20117;-59
2023/04/03 02:38:41;;;;;;;3.80;2.25;;;12.50;85.50;;;;;;5043930;28;20029;-58
2023/04/03 02:41:08;;;;;;;2.38;1.80;;;12.60;85.50;;;;;;5043699;28;20036;-58
2023/04/03 02:43:34;;;;;;;3.15;1.85;;;12.60;85.40;;;;;;5043949;28;20021;-58
2023/04/03 02:46:00;;;;;;;6.07;2.10;;;12.60;85.40;;;;;;5043320;28;20037;-58
2023/04/03 02:48:26;;;;;;;3.28;2.28;;;12.60;85.30;;;;;;5043633;28;20025;-58
2023/04/03 02:50:51;;;;;;;3.38;2.40;;;12.60;85.30;;;;;;5044905;28;20030;-58
2023/04/03 02:53:17;;;;;;;3.78;2.00;;;12.50;85.20;;;;;;5026987;28;20053;-58
2023/04/03 02:55:43;;;;;;;5.82;2.33;;;12.50;85.20;;;;;;5027118;28;20025;-58
2023/04/03 02:58:09;;;;;;;6.68;2.22;;;12.50;85.20;;;;;;5026789;28;20033;-58
2023/04/03 03:00:34;;;;;;;2.80;2.08;;;12.50;85.20;;;;;;5043532;28;20041;-58
2023/04/03 03:03:00;;;;;;;2.92;2.10;;;12.50;85.90;;;;;;5043507;28;20124;-59
2023/04/03 03:05:27;;;;;;;3.00;1.77;;;12.40;85.20;;;;;;5042741;28;20029;-58
2023/04/03 03:07:52;;;;;;;4.88;2.05;;;12.40;85.20;;;;;;5043349;28;20112;-58
2023/04/03 03:10:18;;;;;;;4.55;1.83;;;12.40;85.20;;;;;;5043397;28;20025;-58
2023/04/03 03:12:43;;;;;;;3.92;2.25;;;12.40;85.20;;;;;;5043277;28;20026;-58
2023/04/03 03:15:09;;;;;;;3.78;2.20;;;12.40;85.20;;;;;;5026893;28;20045;-58
2023/04/03 03:17:36;;;;;;;3.72;2.30;;;12.40;85.20;;;;;;5044442;28;20171;-58
2023/04/03 03:20:02;;;;;;;4.65;2.00;;;12.40;85.20;;;;;;5043184;28;20032;-58
2023/04/03 03:22:28;;;;;;;3.85;2.45;;;12.40;85.20;;;;;;5026912;28;20037;-58
2023/04/03 03:24:53;;;;;;;1.60;1.50;;;12.30;85.10;;;;;;5043311;28;20109;-58
2023/04/03 03:27:19;;;;;;;3.70;2.20;;;12.30;85.10;;;;;;5043093;28;20430;-58
2023/04/03 03:29:44;;;;;;;3.03;2.08;;;12.30;85.20;;;;;;5042916;28;20105;-58
2023/04/03 03:32:10;;;;;;;3.83;2.00;;;12.30;85.10;;;;;;5043254;28;20057;-58
2023/04/03 03:34:35;;;;;;;4.18;2.22;;;12.30;85.00;;;;;;5043339;28;20437;-58
2023/04/03 03:37:01;;;;;;;2.95;1.63;;;12.30;85.00;;;;;;5043114;28;20033;-58
2023/04/03 03:39:27;;;;;;;2.30;1.58;;;12.20;84.90;;;;;;5026556;28;20092;-58
2023/04/03 03:41:53;;;;;;;2.30;1.70;;;12.20;85.00;;;;;;5043031;28;20049;-58
2023/04/03 03:44:19;;;;;;;3.15;1.80;;;12.20;85.00;;;;;;5044481;28;20048;-58
2023/04/03 03:46:45;;;;;;;2.50;1.73;;;12.20;84.90;;;;;;5042895;28;20174;-58
2023/04/03 03:49:11;;;;;;;3.13;2.05;;;12.20;85.00;;;;;;5042960;28;20492;-58
2023/04/03 03:51:37;;;;;;;3.10;2.05;;;12.10;85.00;;;;;;5044027;28;20056;-58
2023/04/03 03:54:03;;;;;;;2.45;1.60;;;12.10;84.90;;;;;;5042960;28;20032;-58
2023/04/03 03:56:29;;;;;;;3.17;1.80;;;12.10;84.70;;;;;;5042836;28;20041;-58
2023/04/03 03:58:56;;;;;;;1.95;1.58;;;12.10;84.60;;;;;;5043031;28;20029;-58
2023/04/03 04:01:23;;;;;;;4.30;1.88;;;12.10;84.60;;;;;;5026677;28;20485;-58
2023/04/03 04:03:49;;;;;;;3.22;1.70;;;12.00;84.50;;;;;;5042938;28;20017;-58
2023/04/03 04:06:15;;;;;;;2.40;1.60;;;12.00;84.50;;;;;;5042839;28;20041;-58
2023/04/03 04:08:40;;;;;;;2.50;1.90;;;12.00;84.50;;;;;;5044077;28;20026;-58
2023/04/03 04:11:06;;;;;;;2.58;1.75;;;12.00;84.50;;;;;;5042797;28;20026;-58
2023/04/03 04:13:32;;;;;;;2.53;1.95;;;12.00;84.60;;;;;;5042809;28;20029;-59
2023/04/03 04:15:57;;;;;;;5.18;2.10;;;11.90;84.40;;;;;;5042833;28;20037;-57
2023/04/03 04:18:23;;;;;;;1.98;1.70;;;11.90;84.30;;;;;;5029459;28;20057;-57
2023/04/03 04:20:49;;;;;;;1.88;1.48;;;11.90;84.20;;;;;;5046358;28;20041;-58
2023/04/03 04:23:15;;;;;;;2.10;1.70;;;11.90;84.20;;;;;;5029925;28;20035;-58
2023/04/03 04:25:41;;;;;;;3.88;1.83;;;11.90;84.10;;;;;;5029673;28;20041;-58
2023/04/03 04:28:07;;;;;;;2.97;2.15;;;11.80;84.00;;;;;;5046419;28;20025;-58
2023/04/03 04:30:32;;;;;;;2.65;2.03;;;11.80;84.00;;;;;;5046275;28;20045;-58
2023/04/03 04:32:58;;;;;;;2.45;1.75;;;11.90;84.20;;;;;;5046411;28;20013;-58
2023/04/03 04:35:23;;;;;;;2.45;1.70;;;11.80;84.20;;;;;;5047699;28;20028;-58
2023/04/03 04:37:49;;;;;;;3.40;1.85;;;11.80;84.20;;;;;;5046144;28;20096;-58
2023/04/03 04:40:15;;;;;;;2.90;2.15;;;11.70;84.10;;;;;;5047612;28;20119;-58
2023/04/03 04:42:41;;;;;;;2.75;2.05;;;11.80;84.00;;;;;;5046318;28;20048;-58
2023/04/03 04:45:07;;;;;;;2.30;1.70;;;11.80;84.00;;;;;;5046121;28;20029;-58
2023/04/03 04:47:32;;;;;;;2.42;1.80;;;11.70;83.90;;;;;;5047467;28;20056;-59
2023/04/03 04:49:58;;;;;;;2.17;1.98;;;11.70;83.90;;;;;;5045857;28;20021;-58
2023/04/03 04:52:24;;;;;;;4.15;2.13;;;11.70;83.80;;;;;;5045750;28;20038;-58
2023/04/03 04:54:49;;;;;;;1.85;1.50;;;11.70;83.70;;;;;;5045957;28;20447;-58
2023/04/03 04:57:15;;;;;;;5.10;2.10;;;11.60;83.60;;;;;;5029442;28;20071;-58
2023/04/03 04:59:41;;;;;;;3.10;1.80;;;11.60;83.60;;;;;;5047352;28;20017;-58
2023/04/03 05:02:06;;;;;;;1.92;1.60;;;11.60;83.60;;;;;;5046107;28;20029;-58
2023/04/03 05:04:33;;;;;;;2.30;1.80;;;11.60;83.70;;;;;;5046125;28;20029;-56
2023/04/03 05:06:59;;;;;;;2.25;1.90;;;11.60;83.60;;;;;;5028953;28;20060;-58
2023/04/03 05:09:24;;;;;;;2.28;2.03;;;11.60;83.60;;;;;;5029083;28;20087;-58
2023/04/03 05:11:50;;;;;;;3.88;2.10;;;11.60;83.50;;;;;;5045733;28;20096;-58
2023/04/03 05:14:16;;;;;;;2.20;1.95;;;11.50;83.50;;;;;;5045683;28;20030;-58
2023/04/03 05:16:41;;;;;;;3.75;1.95;;;11.50;83.50;;;;;;5045668;28;20038;-58
2023/04/03 05:19:07;;;;;;;3.40;1.70;;;11.50;83.40;;;;;;5045495;28;20028;-58
2023/04/03 05:21:32;;;;;;;2.30;2.05;;;11.50;83.40;;;;;;5045369;28;20033;-58
2023/04/03 05:23:59;;;;;;;3.25;2.00;;;11.50;83.30;;;;;;5045484;28;20033;-58
2023/04/03 05:26:25;;;;;;;2.78;2.13;;;11.50;83.50;;;;;;5028693;28;20410;-58
2023/04/03 05:28:51;;;;;;;3.22;2.05;;;11.50;83.40;;;;;;5027673;28;20113;-58
2023/04/03 05:31:16;;;;;;;2.10;1.90;;;11.50;83.40;;;;;;5028572;28;20192;-58
2023/04/03 05:33:42;;;;;;;2.47;1.83;;;11.50;83.20;;;;;;5046465;28;20021;-57
2023/04/03 05:36:08;;;;;;;2.72;2.13;;;11.50;83.20;;;;;;5045260;28;20029;-58
2023/04/03 05:38:33;;;;;;;2.40;1.83;;;11.50;83.10;;;;;;5046598;28;20033;-58
2023/04/03 05:40:59;;;;;;;3.20;1.95;;;11.50;83.10;;;;;;5046387;28;20037;-58
2023/04/03 05:43:25;;;;;;;2.42;1.90;;;11.40;82.80;;;;;;5045024;28;20017;-58
2023/04/03 05:45:51;;;;;;;2.20;2.00;;;11.40;82.70;;;;;;5044566;28;20059;-58
2023/04/03 05:48:16;;;;;;;2.30;1.80;;;11.40;82.80;;;;;;5044881;28;20086;-58
2023/04/03 05:50:43;;;;;;;3.35;2.05;;;11.40;82.80;;;;;;5044419;28;20029;-58
2023/04/03 05:53:14;;;;;;;3.05;2.03;;;11.40;82.80;;;;;;5028315;28;20060;-58
2023/04/03 05:55:40;;;;;;;2.53;1.67;;;11.40;82.60;;;;;;5044907;28;20446;-58
2023/04/03 05:58:05;;;;;;;3.25;2.00;;;11.40;82.50;;;;;;5045835;28;20029;-58
2023/04/03 06:00:31;;;;;;;2.38;1.85;;;11.40;82.30;;;;;;5046037;28;20036;-58
2023/04/03 06:02:57;;;;;;;2.33;2.13;;;11.40;82.10;;;;;;5044410;28;20036;-58
2023/04/03 06:05:22;;;;;;;2.50;2.00;;;11.30;82.60;;;;;;5043858;28;20021;-58
2023/04/03 06:07:49;;;;;;;2.45;2.13;;;11.30;81.80;;;;;;5044193;28;20450;-58
2023/04/03 06:10:14;;;;;;;2.53;2.13;;;11.30;81.80;;;;;;5044179;28;20021;-58
2023/04/03 06:12:40;;;;;;;3.10;2.10;;;11.30;81.70;;;;;;5027889;28;20370;-58
2023/04/03 06:15:07;;;;;;;4.53;2.50;;;11.30;81.60;;;;;;5045707;28;20048;-58
2023/04/03 06:17:33;;;;;;;5.82;1.88;;;11.30;81.50;;;;;;5027773;28;20045;-58
2023/04/03 06:19:59;;;;;;;4.55;2.47;;;11.30;81.40;;;;;;5038741;28;20029;-58
2023/04/03 06:22:25;;;;;;;2.42;1.85;;;11.20;81.20;;;;;;5042756;28;20040;-58
2023/04/03 06:24:51;;;;;;;2.90;2.03;;;11.20;81.10;;;;;;5044570;28;20079;-58
2023/04/03 06:27:16;;;;;;;4.65;2.00;;;11.20;81.00;;;;;;5034138;28;20030;-58
2023/04/03 06:29:43;;;;;;;3.08;2.35;;;11.20;81.00;;;;;;5040704;28;20032;-58
2023/04/03 06:32:08;;;;;;;2.40;2.03;;;11.20;80.90;;;;;;5039273;28;20029;-58
2023/04/03 06:34:35;;;;;;;4.68;2.20;;;11.20;81.00;;;;;;5038221;28;20056;-58
2023/04/03 06:37:00;;;;;;;5.45;2.00;;;11.10;80.90;;;;;;5029712;28;20029;-58
2023/04/03 06:39:27;;;;;;;4.35;2.20;;;11.10;80.80;;;;;;5032981;28;20167;-58
2023/04/03 06:41:52;;;;;;;4.38;2.38;;;11.10;80.70;;;;;;5030593;28;20151;-58
2023/04/03 06:44:18;;;;;;;2.50;2.10;;;11.20;80.60;;;;;;5034749;28;20037;-58
2023/04/03 06:46:44;;;;;;;3.03;2.38;;;11.10;80.40;;;;;;5031642;28;20041;-58
2023/04/03 06:49:10;;;;;;;4.38;2.10;;;11.10;80.40;;;;;;5032586;28;21483;-58
2023/04/03 06:51:36;;;;;;;2.65;2.13;;;11.10;80.90;;;;;;5035314;28;20037;-59
2023/04/03 06:54:02;;;;;;;5.97;2.13;;;11.10;80.30;;;;;;5031707;28;20112;-59
2023/04/03 06:56:28;;;;;;;4.10;2.35;;;11.10;80.30;;;;;;5029160;28;20060;-58
2023/04/03 06:58:55;;;;;;;4.70;2.30;;;11.10;80.30;;;;;;5031190;28;20390;-56
2023/04/03 07:01:21;;;;;;;3.80;2.30;;;11.10;80.10;;;;;;5032855;28;20093;-59
2023/04/03 07:03:47;;;;;;;3.97;2.40;;;11.10;80.10;;;;;;5033248;28;20060;-57
2023/04/03 07:06:14;;;;;;;5.20;2.60;;;11.10;80.70;;;;;;5033336;28;20469;-58
2023/04/03 07:08:40;;;;;;;12.60;2.90;;;11.00;79.80;;;;;;5030038;28;20436;-58
2023/04/03 07:11:06;;;;;;;10.50;2.42;;;11.00;79.60;;;;;;5019658;28;20026;-58
2023/04/03 07:13:32;;;;;;;6.53;2.30;;;11.00;79.60;;;;;;5013481;28;20143;-58
2023/04/03 07:15:58;;;;;;;6.85;2.15;;;11.00;79.50;;;;;;5028997;28;20044;-58
2023/04/03 07:18:23;;;;;;;4.22;2.20;;;11.10;79.50;;;;;;5031493;28;20033;-58
2023/04/03 07:20:49;;;;;;;5.60;2.25;;;11.10;80.20;;;;;;5031797;28;20117;-58
2023/04/03 07:23:14;;;;;;;4.38;2.40;;;11.10;79.30;;;;;;5045444;28;20037;-58
2023/04/03 07:25:44;;;;;;;3.33;1.92;;;11.10;79.20;;;;;;5032266;28;20040;-58
2023/04/03 07:28:10;;;;;;;7.65;2.40;;;11.10;79.00;;;;;;5033376;28;20030;-58
2023/04/03 07:30:42;;;;;;;4.10;2.00;;;11.10;79.50;;;;;;5032669;28;20029;-58
2023/04/03 07:33:08;;;;;;;8.75;2.03;;;11.00;78.80;;;;;;5011709;28;20454;-58
2023/04/03 07:35:33;;;;;;;6.60;2.50;;;11.00;78.70;;;;;;5030245;28;20319;-58
2023/04/03 07:37:59;;;;;;;9.88;2.17;;;11.00;78.60;;;;;;5031583;28;20498;-58
2023/04/03 07:40:25;;;;;;;5.45;2.00;;;11.10;78.60;;;;;;5070012;28;20026;-58
2023/04/03 07:42:50;;;;;;;62.63;7.65;;;11.00;78.40;;;;;;5037544;28;20116;-58
2023/04/03 07:45:17;;;;;;;29.63;5.13;;;11.00;78.30;;;;;;5038125;28;20064;-58
2023/04/03 07:47:42;;;;;;;35.70;3.85;;;11.00;78.30;;;;;;5034532;28;20068;-58
2023/04/03 07:50:08;;;;;;;37.70;4.47;;;11.00;78.30;;;;;;5037483;28;20391;-58
2023/04/03 07:52:34;;;;;;;26.45;3.55;;;11.00;78.30;;;;;;5036692;28;20049;-58
2023/04/03 07:54:59;;;;;;;30.80;4.50;;;11.10;78.30;;;;;;5038496;28;20552;-59
2023/04/03 07:57:25;;;;;;;17.98;3.65;;;11.00;78.20;;;;;;5038265;28;20034;-58
2023/04/03 07:59:50;;;;;;;20.08;3.85;;;11.00;78.00;;;;;;5037877;28;20075;-58
2023/04/03 08:02:16;;;;;;;44.45;5.40;;;11.10;77.90;;;;;;5039682;28;20093;-58
2023/04/03 08:04:42;;;;;;;36.47;5.13;;;11.10;77.60;;;;;;5070702;28;20037;-58
2023/04/03 08:07:07;;;;;;;44.80;6.10;;;11.10;77.70;;;;;;5041916;28;20053;-58
2023/04/03 08:09:33;;;;;;;29.10;4.40;;;11.10;77.60;;;;;;5046334;28;20405;-58
2023/04/03 08:11:58;;;;;;;111.55;16.17;;;11.10;77.50;;;;;;5046374;28;20034;-58
2023/04/03 08:14:24;;;;;;;46.40;7.28;;;11.20;77.30;;;;;;5046345;28;20021;-58
2023/04/03 08:16:50;;;;;;;41.13;5.53;;;11.20;77.30;;;;;;5029835;28;20037;-58
2023/04/03 08:19:17;;;;;;;52.47;7.10;;;11.20;77.30;;;;;;5046585;28;20064;-58
2023/04/03 08:21:43;;;;;;;53.08;7.05;;;11.20;77.20;;;;;;5030128;28;20037;-58
2023/04/03 08:24:09;;;;;;;42.38;5.75;;;11.20;77.20;;;;;;5043694;28;20033;-58
2023/04/03 08:26:34;;;;;;;37.67;8.52;;;11.20;77.10;;;;;;5047003;28;20112;-58
2023/04/03 08:29:00;;;;;;;48.33;7.15;;;11.20;76.90;;;;;;5076089;28;20037;-58
2023/04/03 08:31:26;;;;;;;49.80;6.85;;;11.30;76.90;;;;;;5044487;28;20030;-58
2023/04/03 08:33:51;;;;;;;39.72;6.40;;;11.30;76.80;;;;;;5044642;28;20029;-58
2023/04/03 08:36:26;;;;;;;49.03;6.30;;;11.30;76.70;;;;;;5045798;28;20488;-58
2023/04/03 08:38:51;;;;;;;54.28;6.20;;;11.30;76.70;;;;;;5029438;28;20049;-58
2023/04/03 08:41:33;;;;;;;48.50;7.32;;;11.30;76.60;;;;;;5045164;28;20041;-58
2023/04/03 08:44:17;;;;;;;56.63;7.55;;;11.30;76.70;;;;;;5044384;28;20037;-58
2023/04/03 08:47:02;;;;;;;62.17;7.75;;;11.30;76.70;;;;;;5047344;28;20030;-58
2023/04/03 08:49:37;;;;;;;42.13;7.32;;;11.30;76.50;;;;;;5046137;28;20018;-58
2023/04/03 08:52:17;;;;;;;48.22;7.60;;;11.40;76.50;;;;;;5045501;28;20033;-58
2023/04/03 08:54:55;;;;;;;53.95;8.25;;;11.40;76.20;;;;;;5045620;28;20040;-58
2023/04/03 08:57:41;;;;;;;54.63;7.68;;;11.40;76.10;;;;;;5045784;28;20128;-58
2023/04/03 09:00:18;;;;;;;73.60;9.55;;;11.40;76.50;;;;;;5045650;28;20041;-58
2023/04/03 09:02:48;;;;;;;49.47;8.20;;;11.40;76.10;;;;;;5045087;28;20155;-57
2023/04/03 09:05:19;;;;;;;57.42;8.38;;;11.40;76.00;;;;;;5045022;28;20037;-58
2023/04/03 09:08:13;;;;;;;58.28;7.72;;;11.40;75.90;;;;;;5045463;28;20501;-58
2023/04/03 09:10:38;;;;;;;57.55;8.02;;;11.40;75.80;;;;;;5044870;28;20045;-57
2023/04/03 09:13:18;;;;;;;47.80;7.15;;;11.40;76.20;;;;;;5045403;28;20394;-58
2023/04/03 09:15:44;;;;;;;36.45;7.13;;;11.40;75.70;;;;;;5045567;28;20030;-58
2023/04/03 09:18:31;;;;;;;56.38;7.38;;;11.40;75.50;;;;;;5045543;28;20097;-58
2023/04/03 09:21:19;;;;;;;38.83;6.15;;;11.50;75.40;;;;;;5045320;28;20040;-58
2023/04/03 09:23:53;;;;;;;51.00;7.72;;;11.50;76.10;;;;;;5045175;28;20029;-58
2023/04/03 09:26:29;;;;;;;46.10;6.70;;;11.50;75.40;;;;;;5045057;28;20034;-58
2023/04/03 09:28:56;;;;;;;;;;;11.50;75.20;;;;;;5045243;28;20533;-58
2023/04/03 09:31:46;;;;;;;55.38;8.38;;;11.50;75.10;;;;;;5078035;28;19970;-58
2023/04/03 09:34:26;;;;;;;52.10;8.40;;;11.50;75.10;;;;;;5045701;28;20030;-58
2023/04/03 09:36:53;;;;;;;41.88;6.97;;;11.60;75.10;;;;;;5044819;28;20029;-58
2023/04/03 09:39:28;;;;;;;56.33;8.65;;;11.60;74.90;;;;;;5045778;28;20496;-58
2023/04/03 09:41:57;;;;;;;78.22;9.18;;;11.60;74.80;;;;;;5027943;28;20029;-58
2023/04/03 09:44:25;;;;;;;49.88;8.75;;;11.60;74.80;;;;;;5077883;28;20085;-58
2023/04/03 09:46:50;;;;;;;62.45;8.18;;;11.60;74.70;;;;;;5044566;28;20042;-58
2023/04/03 09:49:16;;;;;;;57.42;9.20;;;11.60;74.60;;;;;;5044754;28;20045;-58
2023/04/03 09:51:43;;;;;;;46.47;7.18;;;11.60;74.40;;;;;;5044275;28;20406;-58
2023/04/03 09:54:26;;;;;;;75.22;9.20;;;11.70;74.60;;;;;;5045658;28;20025;-58
2023/04/03 09:56:51;;;;;;;94.80;12.43;;;11.70;74.50;;;;;;5046918;28;20059;-58
2023/04/03 09:59:17;;;;;;;70.70;9.93;;;11.70;74.50;;;;;;5078217;28;20026;-58
2023/04/03 10:01:56;;;;;;;69.82;9.73;;;11.70;74.40;;;;;;5044512;28;20041;-58
2023/04/03 10:04:22;;;;;;;96.70;10.10;;;11.70;74.20;;;;;;5044603;28;20576;-58
2023/04/03 10:06:54;;;;;;;62.88;9.35;;;11.70;74.20;;;;;;5060470;28;20041;-58
2023/04/03 10:09:29;;;;;;;62.83;9.45;;;11.80;74.10;;;;;;5045350;28;20037;-58
2023/04/03 10:12:12;;;;;;;52.10;9.13;;;11.80;74.20;;;;;;5042817;28;20049;-58
2023/04/03 10:14:52;;;;;;;61.58;9.40;;;11.80;74.20;;;;;;5044024;28;20021;-57
2023/04/03 10:17:21;;;;;;;79.15;10.32;;;11.80;74.00;;;;;;5044848;28;20048;-58
2023/04/03 10:19:56;;;;;;;72.65;9.88;;;11.80;74.10;;;;;;5044652;28;20025;-58
2023/04/03 10:23:03;;;;;;;71.90;8.88;;;11.90;74.20;;;;;;5075872;28;20592;-58
2023/04/03 10:25:37;;;;;;;80.18;10.65;;;11.90;74.10;;;;;;5029694;28;20049;-58
2023/04/03 10:28:08;;;;;;;76.80;10.45;;;11.90;73.90;;;;;;5075445;28;20251;-58
2023/04/03 10:30:52;;;;;;;75.47;9.90;;;11.90;74.00;;;;;;5043555;28;20045;-58
2023/04/03 10:33:42;;;;;;;76.28;10.27;;;11.90;73.80;;;;;;5061128;28;20415;-58
2023/04/03 10:36:53;;;;;;;85.05;10.52;;;11.90;73.90;;;;;;5076716;28;20034;-58
2023/04/03 10:39:31;;;;;;;93.18;12.57;;;12.00;73.80;;;;;;5049848;28;20466;-58
2023/04/03 10:41:59;;;;;;;129.07;14.27;;;12.00;73.70;;;;;;5076381;28;20541;-58
2023/04/03 10:44:59;;;;;;;101.78;12.93;;;12.00;73.50;;;;;;5076326;28;20105;-58
2023/04/03 10:47:51;;;;;;;93.53;12.13;;;12.00;73.50;;;;;;5073182;28;20029;-58
2023/04/03 10:50:23;;;;;;;118.15;13.48;;;12.10;73.50;;;;;;5041563;28;20088;-58
2023/04/03 10:53:18;;;;;;;108.18;14.20;;;12.10;73.60;;;;;;5023718;28;20033;-58
2023/04/03 10:56:13;;;;;;;116.00;14.85;;;12.10;73.50;;;;;;5055549;28;20084;-58
2023/04/03 10:58:54;;;;;;;128.93;15.82;;;12.20;74.30;;;;;;5046390;28;20038;-58
2023/04/03 11:01:22;;;;;;;123.32;14.43;;;12.20;73.40;;;;;;5054615;28;20018;-59
2023/04/03 11:03:51;;;;;;;89.28;13.80;;;12.20;73.30;;;;;;5039358;28;20017;-58
2023/04/03 11:06:17;;;;;;;120.03;13.32;;;12.30;73.40;;;;;;5039446;28;20033;-58
2023/04/03 11:09:03;;;;;;;100.78;13.45;;;12.20;73.40;;;;;;5024890;28;20040;-58
2023/04/03 11:11:37;;;;;;;125.95;13.88;;;12.20;73.50;;;;;;5039623;28;20054;-58
2023/04/03 11:14:13;;;;;;;77.28;11.60;;;12.20;73.50;;;;;;5039610;28;20037;-57
2023/04/03 11:16:41;;;;;;;108.30;13.60;;;12.20;73.40;;;;;;5038532;28;20042;-58
2023/04/03 11:19:33;;;;;;;85.75;12.20;;;12.30;73.20;;;;;;5056349;28;20022;-58
2023/04/03 11:22:22;;;;;;;70.00;11.60;;;12.30;73.30;;;;;;5022672;28;20050;-58
2023/04/03 11:25:15;;;;;;;106.43;13.25;;;12.30;73.30;;;;;;5024695;28;20053;-58
2023/04/03 11:27:43;;;;;;;112.28;12.88;;;12.40;73.30;;;;;;5035729;28;20042;-57
2023/04/03 11:30:17;;;;;;;86.63;13.63;;;12.40;73.90;;;;;;5055624;28;20014;-58
2023/04/03 11:33:10;;;;;;;128.20;16.13;;;12.40;73.30;;;;;;5038802;28;20030;-58
2023/04/03 11:35:35;;;;;;;156.30;17.95;;;12.40;73.40;;;;;;5024491;28;20073;-58
2023/04/03 11:38:02;;;;;;;151.23;17.10;;;12.40;73.40;;;;;;5052181;28;20029;-58
2023/04/03 11:40:32;;;;;;;154.57;16.80;;;12.40;73.40;;;;;;5042685;28;20089;-58
2023/04/03 11:43:16;;;;;;;129.95;14.57;;;12.40;73.50;;;;;;5059420;28;20028;-58
2023/04/03 11:46:19;;;;;;;77.05;10.80;;;12.40;73.40;;;;;;5043105;28;20044;-58
2023/04/03 11:48:45;;;;;;;87.47;12.13;;;12.40;73.20;;;;;;5022271;28;20030;-58
2023/04/03 11:51:17;;;;;;;100.38;12.23;;;12.40;73.10;;;;;;5005892;28;20147;-58
2023/04/03 11:53:42;;;;;;;98.65;11.68;;;12.40;73.20;;;;;;5042713;28;20101;-58
2023/04/03 11:56:23;;;;;;;87.13;11.07;;;12.40;73.10;;;;;;5026035;28;20049;-58
2023/04/03 11:59:04;;;;;;;87.95;12.27;;;12.40;73.10;;;;;;5042962;28;20032;-58
2023/04/03 12:01:46;;;;;;;103.32;13.00;;;12.40;73.10;;;;;;5042390;28;20079;-58
2023/04/03 12:04:15;;;;;;;62.90;10.65;;;12.40;73.10;;;;;;5040334;28;20132;-58
2023/04/03 12:06:40;;;;;;;86.38;10.05;;;12.40;72.90;;;;;;5025393;28;20040;-58
2023/04/03 12:09:35;;;;;;;56.30;9.73;;;12.40;72.80;;;;;;5043013;28;20049;-57
2023/04/03 12:12:20;;;;;;;81.57;9.48;;;12.50;72.80;;;;;;5041394;28;20172;-58
2023/04/03 12:14:46;;;;;;;62.10;9.00;;;12.50;72.60;;;;;;5042496;28;20057;-58
2023/04/03 12:17:20;;;;;;;60.08;9.70;;;12.50;72.60;;;;;;5025003;28;20041;-58
2023/04/03 12:19:47;;;;;;;118.22;13.13;;;12.50;72.60;;;;;;5041905;28;20033;-58
2023/04/03 12:22:14;;;;;;;107.93;12.85;;;12.50;72.60;;;;;;5039999;28;20045;-57
2023/04/03 12:24:48;;;;;;;108.05;13.93;;;12.60;72.70;;;;;;5041176;28;20064;-58
2023/04/03 12:27:26;;;;;;;85.38;11.77;;;12.60;72.70;;;;;;5021824;28;20108;-57
2023/04/03 12:30:01;;;;;;;100.30;14.48;;;12.60;72.60;;;;;;5041903;28;20087;-58
2023/04/03 12:33:05;;;;;;;104.93;14.13;;;12.60;72.50;;;;;;5042152;28;20036;-58
2023/04/03 12:35:42;;;;;;;96.15;13.23;;;12.60;72.60;;;;;;5041671;28;20064;-58
2023/04/03 12:38:59;;;;;;;99.90;12.23;;;12.70;72.60;;;;;;5044328;28;20393;-58
2023/04/03 12:41:38;;;;;;;121.88;17.38;;;12.70;72.70;;;;;;5033882;28;20537;-58
2023/04/03 12:44:25;;;;;;;122.03;15.68;;;12.70;72.60;;;;;;5023607;28;20021;-58
2023/04/03 12:46:52;;;;;;;162.30;18.15;;;12.70;72.60;;;;;;5039058;28;20084;-58
2023/04/03 12:49:29;;;;;;;163.10;18.08;;;12.70;72.70;;;;;;5045689;28;20053;-58
2023/04/03 12:51:55;;;;;;;134.43;17.85;;;12.70;72.90;;;;;;5045879;28;20034;-57
2023/04/03 12:54:27;;;;;;;132.27;17.60;;;12.80;73.00;;;;;;5044600;28;20028;-58